Terminal Aerodrome Forecast
Issued by NWS

Home | Current Version | Previous Version | Text Only | Print | Product List | Glossary On
Versions: 1 2 3 4 5 6 7 8 9 10 11 12 13 14 15 16 17 18 19 20 21
574
FTUS46 KLOX 061410 AAA
TAFOXR
TAF AMD
KOXR 061410Z 0614/0712 05005KT P6SM OVC035
     FM062000 24008KT P6SM BKN250
     FM070200 VRB03KT P6SM BKN250
      AMD LTD TO CLD AND WIND=

USA.gov is the U.S. government's official web portal to all federal, state and local government web resources and services.